sensor_id;sensor_type;location;lat;lon;timestamp;temperature;humidity
1680;DHT22;838;51.794;12.258;2023-04-15T00:00:09;7.60;78.40
1680;DHT22;838;51.794;12.258;2023-04-15T00:02:36;7.60;79.30
1680;DHT22;838;51.794;12.258;2023-04-15T00:05:03;7.50;79.10
1680;DHT22;838;51.794;12.258;2023-04-15T00:07:29;7.50;80.40
1680;DHT22;838;51.794;12.258;2023-04-15T00:09:56;7.50;80.90
1680;DHT22;838;51.794;12.258;2023-04-15T00:12:23;7.50;80.80
1680;DHT22;838;51.794;12.258;2023-04-15T00:14:49;7.50;80.60
1680;DHT22;838;51.794;12.258;2023-04-15T00:17:15;7.40;81.70
1680;DHT22;838;51.794;12.258;2023-04-15T00:19:42;7.40;82.90
1680;DHT22;838;51.794;12.258;2023-04-15T00:22:09;7.50;82.70
1680;DHT22;838;51.794;12.258;2023-04-15T00:24:35;7.50;82.50
1680;DHT22;838;51.794;12.258;2023-04-15T00:27:01;7.50;82.40
1680;DHT22;838;51.794;12.258;2023-04-15T00:29:28;7.50;82.10
1680;DHT22;838;51.794;12.258;2023-04-15T00:31:54;7.50;82.50
1680;DHT22;838;51.794;12.258;2023-04-15T00:34:21;7.50;82.30
1680;DHT22;838;51.794;12.258;2023-04-15T00:36:47;7.40;82.10
1680;DHT22;838;51.794;12.258;2023-04-15T00:39:14;7.40;83.10
1680;DHT22;838;51.794;12.258;2023-04-15T00:41:41;7.40;83.50
1680;DHT22;838;51.794;12.258;2023-04-15T00:44:08;7.40;83.50
1680;DHT22;838;51.794;12.258;2023-04-15T00:46:37;7.40;83.30
1680;DHT22;838;51.794;12.258;2023-04-15T00:49:05;7.50;83.30
1680;DHT22;838;51.794;12.258;2023-04-15T00:51:32;7.50;82.70
1680;DHT22;838;51.794;12.258;2023-04-15T00:54:05;7.60;83.20
1680;DHT22;838;51.794;12.258;2023-04-15T00:56:36;7.50;81.50
1680;DHT22;838;51.794;12.258;2023-04-15T00:59:03;7.40;81.90
1680;DHT22;838;51.794;12.258;2023-04-15T01:01:29;7.40;82.60
1680;DHT22;838;51.794;12.258;2023-04-15T01:03:56;7.40;83.10
1680;DHT22;838;51.794;12.258;2023-04-15T01:06:23;7.40;83.30
1680;DHT22;838;51.794;12.258;2023-04-15T01:08:49;7.40;83.80
1680;DHT22;838;51.794;12.258;2023-04-15T01:11:16;7.40;83.90
1680;DHT22;838;51.794;12.258;2023-04-15T01:13:42;7.40;83.30
1680;DHT22;838;51.794;12.258;2023-04-15T01:16:08;7.40;83.90
1680;DHT22;838;51.794;12.258;2023-04-15T01:18:35;7.40;83.30
1680;DHT22;838;51.794;12.258;2023-04-15T01:21:04;7.40;83.70
1680;DHT22;838;51.794;12.258;2023-04-15T01:23:30;7.40;84.70
1680;DHT22;838;51.794;12.258;2023-04-15T01:25:57;7.40;84.40
1680;DHT22;838;51.794;12.258;2023-04-15T01:28:23;7.40;84.50
1680;DHT22;838;51.794;12.258;2023-04-15T01:31:03;7.50;84.90
1680;DHT22;838;51.794;12.258;2023-04-15T01:33:30;7.50;83.90
1680;DHT22;838;51.794;12.258;2023-04-15T01:35:56;7.40;83.00
1680;DHT22;838;51.794;12.258;2023-04-15T01:38:22;7.40;83.70
1680;DHT22;838;51.794;12.258;2023-04-15T01:40:47;7.40;84.60
1680;DHT22;838;51.794;12.258;2023-04-15T01:43:13;7.40;84.60
1680;DHT22;838;51.794;12.258;2023-04-15T01:45:39;7.40;84.80
1680;DHT22;838;51.794;12.258;2023-04-15T01:48:06;7.50;84.80
1680;DHT22;838;51.794;12.258;2023-04-15T01:50:32;7.60;83.40
1680;DHT22;838;51.794;12.258;2023-04-15T01:52:58;7.40;82.70
1680;DHT22;838;51.794;12.258;2023-04-15T01:55:24;7.40;82.90
1680;DHT22;838;51.794;12.258;2023-04-15T01:57:53;7.40;83.90
1680;DHT22;838;51.794;12.258;2023-04-15T02:00:18;7.40;84.00
1680;DHT22;838;51.794;12.258;2023-04-15T02:02:44;7.40;83.90
1680;DHT22;838;51.794;12.258;2023-04-15T02:05:10;7.40;83.00
1680;DHT22;838;51.794;12.258;2023-04-15T02:07:35;7.40;83.20
1680;DHT22;838;51.794;12.258;2023-04-15T02:10:02;7.40;83.50
1680;DHT22;838;51.794;12.258;2023-04-15T02:12:28;7.40;83.50
1680;DHT22;838;51.794;12.258;2023-04-15T02:14:54;7.40;83.40
1680;DHT22;838;51.794;12.258;2023-04-15T02:17:20;7.40;83.90
1680;DHT22;838;51.794;12.258;2023-04-15T02:19:46;7.50;83.80
1680;DHT22;838;51.794;12.258;2023-04-15T02:22:12;7.40;83.00
1680;DHT22;838;51.794;12.258;2023-04-15T02:24:43;7.50;83.60
1680;DHT22;838;51.794;12.258;2023-04-15T02:27:09;7.50;84.50
1680;DHT22;838;51.794;12.258;2023-04-15T02:29:34;7.50;83.50
1680;DHT22;838;51.794;12.258;2023-04-15T02:32:00;7.50;83.30
1680;DHT22;838;51.794;12.258;2023-04-15T02:34:26;7.50;82.90
1680;DHT22;838;51.794;12.258;2023-04-15T02:36:52;7.50;82.80
1680;DHT22;838;51.794;12.258;2023-04-15T02:39:22;7.60;82.60
1680;DHT22;838;51.794;12.258;2023-04-15T02:41:49;7.50;81.90
1680;DHT22;838;51.794;12.258;2023-04-15T02:44:17;7.50;83.00
1680;DHT22;838;51.794;12.258;2023-04-15T02:49:17;7.50;83.10
1680;DHT22;838;51.794;12.258;2023-04-15T02:51:43;7.50;83.20
1680;DHT22;838;51.794;12.258;2023-04-15T02:54:17;7.50;82.80
1680;DHT22;838;51.794;12.258;2023-04-15T02:56:42;7.50;83.40
1680;DHT22;838;51.794;12.258;2023-04-15T02:59:08;7.60;83.20
1680;DHT22;838;51.794;12.258;2023-04-15T03:01:34;7.60;82.60
1680;DHT22;838;51.794;12.258;2023-04-15T03:04:00;7.60;82.70
1680;DHT22;838;51.794;12.258;2023-04-15T03:06:25;7.60;82.50
1680;DHT22;838;51.794;12.258;2023-04-15T03:08:51;7.60;81.40
1680;DHT22;838;51.794;12.258;2023-04-15T03:11:18;7.70;80.80
1680;DHT22;838;51.794;12.258;2023-04-15T03:13:43;7.70;81.00
1680;DHT22;838;51.794;12.258;2023-04-15T03:16:09;7.80;81.90
1680;DHT22;838;51.794;12.258;2023-04-15T03:18:35;7.70;79.70
1680;DHT22;838;51.794;12.258;2023-04-15T03:21:01;7.70;79.20
1680;DHT22;838;51.794;12.258;2023-04-15T03:23:27;7.70;79.60
1680;DHT22;838;51.794;12.258;2023-04-15T03:25:53;7.70;79.50
1680;DHT22;838;51.794;12.258;2023-04-15T03:28:23;7.60;79.60
1680;DHT22;838;51.794;12.258;2023-04-15T03:30:49;7.60;80.90
1680;DHT22;838;51.794;12.258;2023-04-15T03:33:14;7.60;81.80
1680;DHT22;838;51.794;12.258;2023-04-15T03:35:40;7.60;82.20
1680;DHT22;838;51.794;12.258;2023-04-15T03:38:06;7.50;82.80
1680;DHT22;838;51.794;12.258;2023-04-15T03:40:31;7.50;83.50
1680;DHT22;838;51.794;12.258;2023-04-15T03:42:57;7.60;83.80
1680;DHT22;838;51.794;12.258;2023-04-15T03:45:23;7.60;84.00
1680;DHT22;838;51.794;12.258;2023-04-15T03:47:49;7.60;83.20
1680;DHT22;838;51.794;12.258;2023-04-15T03:52:41;7.60;82.50
1680;DHT22;838;51.794;12.258;2023-04-15T03:55:07;7.60;83.60
1680;DHT22;838;51.794;12.258;2023-04-15T03:57:33;7.60;83.50
1680;DHT22;838;51.794;12.258;2023-04-15T04:00:03;7.60;83.60
1680;DHT22;838;51.794;12.258;2023-04-15T04:02:29;7.60;83.60
1680;DHT22;838;51.794;12.258;2023-04-15T04:04:55;7.70;83.60
1680;DHT22;838;51.794;12.258;2023-04-15T04:07:22;7.70;83.50
1680;DHT22;838;51.794;12.258;2023-04-15T04:09:48;7.70;83.70
1680;DHT22;838;51.794;12.258;2023-04-15T04:12:14;7.70;82.80
1680;DHT22;838;51.794;12.258;2023-04-15T04:14:40;7.60;83.70
1680;DHT22;838;51.794;12.258;2023-04-15T04:17:06;7.60;84.90
1680;DHT22;838;51.794;12.258;2023-04-15T04:19:31;7.60;85.30
1680;DHT22;838;51.794;12.258;2023-04-15T04:21:57;7.60;85.70
1680;DHT22;838;51.794;12.258;2023-04-15T04:24:23;7.60;86.10
1680;DHT22;838;51.794;12.258;2023-04-15T04:26:48;7.60;85.60
1680;DHT22;838;51.794;12.258;2023-04-15T04:29:14;7.70;85.50
1680;DHT22;838;51.794;12.258;2023-04-15T04:31:41;7.70;85.70
1680;DHT22;838;51.794;12.258;2023-04-15T04:34:07;7.70;85.30
1680;DHT22;838;51.794;12.258;2023-04-15T04:36:33;7.80;85.00
1680;DHT22;838;51.794;12.258;2023-04-15T04:38:58;7.70;84.60
1680;DHT22;838;51.794;12.258;2023-04-15T04:41:24;7.80;85.10
1680;DHT22;838;51.794;12.258;2023-04-15T04:43:50;7.80;84.50
1680;DHT22;838;51.794;12.258;2023-04-15T04:46:16;7.80;84.70
1680;DHT22;838;51.794;12.258;2023-04-15T04:48:42;7.90;84.30
1680;DHT22;838;51.794;12.258;2023-04-15T04:51:07;7.90;83.30
1680;DHT22;838;51.794;12.258;2023-04-15T04:53:34;7.90;83.90
1680;DHT22;838;51.794;12.258;2023-04-15T04:56:00;8.00;83.40
1680;DHT22;838;51.794;12.258;2023-04-15T04:58:26;7.90;83.20
1680;DHT22;838;51.794;12.258;2023-04-15T05:00:51;8.00;83.40
1680;DHT22;838;51.794;12.258;2023-04-15T05:03:17;8.00;82.70
1680;DHT22;838;51.794;12.258;2023-04-15T05:05:43;8.00;81.10
1680;DHT22;838;51.794;12.258;2023-04-15T05:08:08;8.00;82.10
1680;DHT22;838;51.794;12.258;2023-04-15T05:10:35;8.00;80.90
1680;DHT22;838;51.794;12.258;2023-04-15T05:13:01;8.00;81.30
1680;DHT22;838;51.794;12.258;2023-04-15T05:15:26;8.00;81.80
1680;DHT22;838;51.794;12.258;2023-04-15T05:20:18;8.10;80.40
1680;DHT22;838;51.794;12.258;2023-04-15T05:22:44;8.10;80.60
1680;DHT22;838;51.794;12.258;2023-04-15T05:25:10;8.10;80.00
1680;DHT22;838;51.794;12.258;2023-04-15T05:27:36;8.10;80.80
1680;DHT22;838;51.794;12.258;2023-04-15T05:30:02;8.10;81.20
1680;DHT22;838;51.794;12.258;2023-04-15T05:32:27;8.10;81.30
1680;DHT22;838;51.794;12.258;2023-04-15T05:34:53;8.20;80.90
1680;DHT22;838;51.794;12.258;2023-04-15T05:37:19;8.10;81.40
1680;DHT22;838;51.794;12.258;2023-04-15T05:39:47;8.10;81.40
1680;DHT22;838;51.794;12.258;2023-04-15T05:42:13;8.10;81.80
1680;DHT22;838;51.794;12.258;2023-04-15T05:44:39;8.10;81.90
1680;DHT22;838;51.794;12.258;2023-04-15T05:47:04;8.20;82.80
1680;DHT22;838;51.794;12.258;2023-04-15T05:49:31;8.20;83.10
1680;DHT22;838;51.794;12.258;2023-04-15T05:51:57;8.30;81.90
1680;DHT22;838;51.794;12.258;2023-04-15T05:54:22;8.30;80.50
1680;DHT22;838;51.794;12.258;2023-04-15T05:56:48;8.30;80.50
1680;DHT22;838;51.794;12.258;2023-04-15T05:59:14;8.20;81.30
1680;DHT22;838;51.794;12.258;2023-04-15T06:01:40;8.30;81.10
1680;DHT22;838;51.794;12.258;2023-04-15T06:04:05;8.30;80.50
1680;DHT22;838;51.794;12.258;2023-04-15T06:06:31;8.30;81.50
1680;DHT22;838;51.794;12.258;2023-04-15T06:08:57;8.40;81.60
1680;DHT22;838;51.794;12.258;2023-04-15T06:11:23;8.40;81.50
1680;DHT22;838;51.794;12.258;2023-04-15T06:13:49;8.40;81.90
1680;DHT22;838;51.794;12.258;2023-04-15T06:16:15;8.50;81.70
1680;DHT22;838;51.794;12.258;2023-04-15T06:18:40;8.50;81.60
1680;DHT22;838;51.794;12.258;2023-04-15T06:21:06;8.40;81.20
1680;DHT22;838;51.794;12.258;2023-04-15T06:23:35;8.50;82.60
1680;DHT22;838;51.794;12.258;2023-04-15T06:26:02;8.50;82.80
1680;DHT22;838;51.794;12.258;2023-04-15T06:28:28;8.50;83.00
1680;DHT22;838;51.794;12.258;2023-04-15T06:30:54;8.50;82.70
1680;DHT22;838;51.794;12.258;2023-04-15T06:33:20;8.50;82.30
1680;DHT22;838;51.794;12.258;2023-04-15T06:35:46;8.60;82.60
1680;DHT22;838;51.794;12.258;2023-04-15T06:38:12;8.60;83.60
1680;DHT22;838;51.794;12.258;2023-04-15T06:40:38;8.60;81.80
1680;DHT22;838;51.794;12.258;2023-04-15T06:43:04;8.60;82.90
1680;DHT22;838;51.794;12.258;2023-04-15T06:45:30;8.70;83.20
1680;DHT22;838;51.794;12.258;2023-04-15T06:47:56;8.80;81.40
1680;DHT22;838;51.794;12.258;2023-04-15T06:50:22;8.70;81.00
1680;DHT22;838;51.794;12.258;2023-04-15T06:52:48;8.90;80.10
1680;DHT22;838;51.794;12.258;2023-04-15T06:55:14;8.90;80.10
1680;DHT22;838;51.794;12.258;2023-04-15T06:57:40;8.90;79.90
1680;DHT22;838;51.794;12.258;2023-04-15T07:00:06;9.00;80.40
1680;DHT22;838;51.794;12.258;2023-04-15T07:02:32;9.00;78.20
1680;DHT22;838;51.794;12.258;2023-04-15T07:04:58;8.90;79.40
1680;DHT22;838;51.794;12.258;2023-04-15T07:07:23;9.00;80.20
1680;DHT22;838;51.794;12.258;2023-04-15T07:09:50;8.90;80.70
1680;DHT22;838;51.794;12.258;2023-04-15T07:12:18;8.90;81.80
1680;DHT22;838;51.794;12.258;2023-04-15T07:14:43;9.00;83.40
1680;DHT22;838;51.794;12.258;2023-04-15T07:17:09;9.00;82.60
1680;DHT22;838;51.794;12.258;2023-04-15T07:19:36;9.00;83.10
1680;DHT22;838;51.794;12.258;2023-04-15T07:22:02;9.10;82.80
1680;DHT22;838;51.794;12.258;2023-04-15T07:24:28;9.10;82.30
1680;DHT22;838;51.794;12.258;2023-04-15T07:26:54;9.20;83.50
1680;DHT22;838;51.794;12.258;2023-04-15T07:29:24;9.20;82.30
1680;DHT22;838;51.794;12.258;2023-04-15T07:31:49;9.20;82.10
1680;DHT22;838;51.794;12.258;2023-04-15T07:34:15;9.20;82.10
1680;DHT22;838;51.794;12.258;2023-04-15T07:36:42;9.20;83.80
1680;DHT22;838;51.794;12.258;2023-04-15T07:39:07;9.20;84.30
1680;DHT22;838;51.794;12.258;2023-04-15T07:41:33;9.20;84.00
1680;DHT22;838;51.794;12.258;2023-04-15T07:43:59;9.30;84.20
1680;DHT22;838;51.794;12.258;2023-04-15T07:46:25;9.30;83.60
1680;DHT22;838;51.794;12.258;2023-04-15T07:48:52;9.40;84.70
1680;DHT22;838;51.794;12.258;2023-04-15T07:51:19;9.40;83.40
1680;DHT22;838;51.794;12.258;2023-04-15T07:53:46;9.40;83.60
1680;DHT22;838;51.794;12.258;2023-04-15T07:56:13;9.40;83.50
1680;DHT22;838;51.794;12.258;2023-04-15T07:58:38;9.50;83.30
1680;DHT22;838;51.794;12.258;2023-04-15T08:01:04;9.60;82.80
1680;DHT22;838;51.794;12.258;2023-04-15T08:03:31;9.60;83.20
1680;DHT22;838;51.794;12.258;2023-04-15T08:05:57;9.70;81.80
1680;DHT22;838;51.794;12.258;2023-04-15T08:08:23;9.70;81.70
1680;DHT22;838;51.794;12.258;2023-04-15T08:10:49;9.70;80.70
1680;DHT22;838;51.794;12.258;2023-04-15T08:13:15;9.60;82.00
1680;DHT22;838;51.794;12.258;2023-04-15T08:15:41;9.60;84.30
1680;DHT22;838;51.794;12.258;2023-04-15T08:18:07;9.70;83.20
1680;DHT22;838;51.794;12.258;2023-04-15T08:20:33;9.70;82.80
1680;DHT22;838;51.794;12.258;2023-04-15T08:22:59;9.70;83.60
1680;DHT22;838;51.794;12.258;2023-04-15T08:25:24;9.80;84.90
1680;DHT22;838;51.794;12.258;2023-04-15T08:27:50;9.80;84.00
1680;DHT22;838;51.794;12.258;2023-04-15T08:30:16;9.80;84.20
1680;DHT22;838;51.794;12.258;2023-04-15T08:32:45;9.90;84.00
1680;DHT22;838;51.794;12.258;2023-04-15T08:35:11;9.90;84.20
1680;DHT22;838;51.794;12.258;2023-04-15T08:37:37;10.00;82.70
1680;DHT22;838;51.794;12.258;2023-04-15T08:40:03;10.20;83.00
1680;DHT22;838;51.794;12.258;2023-04-15T08:42:36;10.20;79.30
1680;DHT22;838;51.794;12.258;2023-04-15T08:45:08;10.20;78.60
1680;DHT22;838;51.794;12.258;2023-04-15T08:47:37;10.20;76.00
1680;DHT22;838;51.794;12.258;2023-04-15T08:50:04;10.20;77.00
1680;DHT22;838;51.794;12.258;2023-04-15T08:52:33;10.30;77.50
1680;DHT22;838;51.794;12.258;2023-04-15T08:55:01;10.40;77.20
1680;DHT22;838;51.794;12.258;2023-04-15T08:57:28;10.50;77.40
1680;DHT22;838;51.794;12.258;2023-04-15T08:59:57;10.50;74.30
1680;DHT22;838;51.794;12.258;2023-04-15T09:02:24;10.60;74.70
1680;DHT22;838;51.794;12.258;2023-04-15T09:04:53;10.70;73.30
1680;DHT22;838;51.794;12.258;2023-04-15T09:07:18;10.60;70.90
1680;DHT22;838;51.794;12.258;2023-04-15T09:09:44;10.60;70.70
1680;DHT22;838;51.794;12.258;2023-04-15T09:12:10;10.70;69.60
1680;DHT22;838;51.794;12.258;2023-04-15T09:14:39;10.70;68.70
1680;DHT22;838;51.794;12.258;2023-04-15T09:17:05;10.80;67.50
1680;DHT22;838;51.794;12.258;2023-04-15T09:19:34;10.70;66.80
1680;DHT22;838;51.794;12.258;2023-04-15T09:22:01;10.80;67.80
1680;DHT22;838;51.794;12.258;2023-04-15T09:24:35;10.90;68.20
1680;DHT22;838;51.794;12.258;2023-04-15T09:27:02;10.90;66.00
1680;DHT22;838;51.794;12.258;2023-04-15T09:29:28;11.00;65.90
1680;DHT22;838;51.794;12.258;2023-04-15T09:31:54;11.10;62.80
1680;DHT22;838;51.794;12.258;2023-04-15T09:34:20;11.10;64.50
1680;DHT22;838;51.794;12.258;2023-04-15T09:36:54;11.10;60.70
1680;DHT22;838;51.794;12.258;2023-04-15T09:39:21;10.90;63.20
1680;DHT22;838;51.794;12.258;2023-04-15T09:42:02;10.80;63.50
1680;DHT22;838;51.794;12.258;2023-04-15T09:44:28;10.80;65.20
1680;DHT22;838;51.794;12.258;2023-04-15T09:46:54;10.70;66.50
1680;DHT22;838;51.794;12.258;2023-04-15T09:49:19;10.70;65.80
1680;DHT22;838;51.794;12.258;2023-04-15T09:51:45;10.70;66.10
1680;DHT22;838;51.794;12.258;2023-04-15T09:54:11;10.70;67.40
1680;DHT22;838;51.794;12.258;2023-04-15T09:56:38;10.80;67.00
1680;DHT22;838;51.794;12.258;2023-04-15T09:59:08;10.70;66.20
1680;DHT22;838;51.794;12.258;2023-04-15T10:01:34;10.80;67.90
1680;DHT22;838;51.794;12.258;2023-04-15T10:04:04;10.80;67.20
1680;DHT22;838;51.794;12.258;2023-04-15T10:06:31;10.90;67.30
1680;DHT22;838;51.794;12.258;2023-04-15T10:09:00;10.90;66.00
1680;DHT22;838;51.794;12.258;2023-04-15T10:11:29;10.90;68.40
1680;DHT22;838;51.794;12.258;2023-04-15T10:13:56;10.90;67.20
1680;DHT22;838;51.794;12.258;2023-04-15T10:16:26;10.90;65.90
1680;DHT22;838;51.794;12.258;2023-04-15T10:18:56;10.80;65.90
1680;DHT22;838;51.794;12.258;2023-04-15T10:21:27;10.90;66.80
1680;DHT22;838;51.794;12.258;2023-04-15T10:23:53;11.00;66.10
1680;DHT22;838;51.794;12.258;2023-04-15T10:26:19;11.10;62.50
1680;DHT22;838;51.794;12.258;2023-04-15T10:28:45;11.10;61.70
1680;DHT22;838;51.794;12.258;2023-04-15T10:31:14;11.20;62.30
1680;DHT22;838;51.794;12.258;2023-04-15T10:33:41;11.30;60.50
1680;DHT22;838;51.794;12.258;2023-04-15T10:36:09;11.30;56.50
1680;DHT22;838;51.794;12.258;2023-04-15T10:38:43;11.50;57.70
1680;DHT22;838;51.794;12.258;2023-04-15T10:43:47;11.20;58.10
1680;DHT22;838;51.794;12.258;2023-04-15T10:46:12;11.20;57.70
1680;DHT22;838;51.794;12.258;2023-04-15T10:48:49;11.40;58.80
1680;DHT22;838;51.794;12.258;2023-04-15T10:51:16;11.20;57.70
1680;DHT22;838;51.794;12.258;2023-04-15T10:53:41;11.20;60.20
1680;DHT22;838;51.794;12.258;2023-04-15T10:56:08;11.20;60.80
1680;DHT22;838;51.794;12.258;2023-04-15T10:58:41;11.30;61.90
1680;DHT22;838;51.794;12.258;2023-04-15T11:01:07;11.00;58.70
1680;DHT22;838;51.794;12.258;2023-04-15T11:03:36;11.00;63.20
1680;DHT22;838;51.794;12.258;2023-04-15T11:06:03;11.10;64.30
1680;DHT22;838;51.794;12.258;2023-04-15T11:08:57;11.10;63.80
1680;DHT22;838;51.794;12.258;2023-04-15T11:14:27;11.20;63.40
1680;DHT22;838;51.794;12.258;2023-04-15T11:16:53;11.00;65.50
1680;DHT22;838;51.794;12.258;2023-04-15T11:19:19;11.00;67.90
1680;DHT22;838;51.794;12.258;2023-04-15T11:21:45;11.00;67.70
1680;DHT22;838;51.794;12.258;2023-04-15T11:24:10;10.90;68.60
1680;DHT22;838;51.794;12.258;2023-04-15T11:29:02;11.20;68.50
1680;DHT22;838;51.794;12.258;2023-04-15T11:31:28;11.10;65.70
1680;DHT22;838;51.794;12.258;2023-04-15T11:33:56;11.40;70.40
1680;DHT22;838;51.794;12.258;2023-04-15T11:36:26;11.50;65.00
1680;DHT22;838;51.794;12.258;2023-04-15T11:38:53;11.30;62.10
1680;DHT22;838;51.794;12.258;2023-04-15T11:41:22;11.30;63.50
1680;DHT22;838;51.794;12.258;2023-04-15T11:43:48;11.30;63.00
1680;DHT22;838;51.794;12.258;2023-04-15T11:46:14;11.10;65.40
1680;DHT22;838;51.794;12.258;2023-04-15T11:48:45;11.20;68.90
1680;DHT22;838;51.794;12.258;2023-04-15T11:51:12;11.40;70.00
1680;DHT22;838;51.794;12.258;2023-04-15T11:56:07;11.60;67.60
1680;DHT22;838;51.794;12.258;2023-04-15T11:58:35;11.40;63.40
1680;DHT22;838;51.794;12.258;2023-04-15T12:01:03;11.50;67.10
1680;DHT22;838;51.794;12.258;2023-04-15T12:03:44;11.70;65.30
1680;DHT22;838;51.794;12.258;2023-04-15T12:06:15;11.70;59.20
1680;DHT22;838;51.794;12.258;2023-04-15T12:14:05;11.70;58.30
1680;DHT22;838;51.794;12.258;2023-04-15T12:16:36;11.90;57.90
1680;DHT22;838;51.794;12.258;2023-04-15T12:19:15;11.90;55.40
1680;DHT22;838;51.794;12.258;2023-04-15T12:21:45;11.50;57.90
1680;DHT22;838;51.794;12.258;2023-04-15T12:24:12;11.40;62.00
1680;DHT22;838;51.794;12.258;2023-04-15T12:26:45;11.40;62.40
1680;DHT22;838;51.794;12.258;2023-04-15T12:29:12;11.30;62.60
1680;DHT22;838;51.794;12.258;2023-04-15T12:31:56;11.40;67.00
1680;DHT22;838;51.794;12.258;2023-04-15T12:34:39;11.60;60.00
1680;DHT22;838;51.794;12.258;2023-04-15T12:37:06;11.70;62.00
1680;DHT22;838;51.794;12.258;2023-04-15T12:39:38;11.80;58.20
1680;DHT22;838;51.794;12.258;2023-04-15T12:42:04;11.80;58.20
1680;DHT22;838;51.794;12.258;2023-04-15T12:44:31;11.80;55.50
1680;DHT22;838;51.794;12.258;2023-04-15T12:46:58;11.50;56.40
1680;DHT22;838;51.794;12.258;2023-04-15T12:49:24;11.30;61.50
1680;DHT22;838;51.794;12.258;2023-04-15T12:52:01;11.40;64.10
1680;DHT22;838;51.794;12.258;2023-04-15T12:54:27;11.10;65.60
1680;DHT22;838;51.794;12.258;2023-04-15T12:56:53;11.10;69.60
1680;DHT22;838;51.794;12.258;2023-04-15T12:59:20;11.20;69.40
1680;DHT22;838;51.794;12.258;2023-04-15T13:01:47;11.30;70.20
1680;DHT22;838;51.794;12.258;2023-04-15T13:04:14;11.30;71.20
1680;DHT22;838;51.794;12.258;2023-04-15T13:06:39;11.20;70.60
1680;DHT22;838;51.794;12.258;2023-04-15T13:09:05;11.20;71.40
1680;DHT22;838;51.794;12.258;2023-04-15T13:11:32;11.40;75.70
1680;DHT22;838;51.794;12.258;2023-04-15T13:14:06;11.30;70.30
1680;DHT22;838;51.794;12.258;2023-04-15T13:16:33;11.30;71.10
1680;DHT22;838;51.794;12.258;2023-04-15T13:19:00;11.20;69.50
1680;DHT22;838;51.794;12.258;2023-04-15T13:21:26;11.30;71.50
1680;DHT22;838;51.794;12.258;2023-04-15T13:23:53;11.30;71.60
1680;DHT22;838;51.794;12.258;2023-04-15T13:26:19;11.30;73.30
1680;DHT22;838;51.794;12.258;2023-04-15T13:28:45;11.40;71.40
1680;DHT22;838;51.794;12.258;2023-04-15T13:31:11;11.50;74.60
1680;DHT22;838;51.794;12.258;2023-04-15T13:33:37;11.50;72.40
1680;DHT22;838;51.794;12.258;2023-04-15T13:36:03;11.60;66.70
1680;DHT22;838;51.794;12.258;2023-04-15T13:38:28;11.40;67.30
1680;DHT22;838;51.794;12.258;2023-04-15T13:40:54;11.40;68.90
1680;DHT22;838;51.794;12.258;2023-04-15T13:43:20;11.50;70.70
1680;DHT22;838;51.794;12.258;2023-04-15T13:45:46;11.60;68.00
1680;DHT22;838;51.794;12.258;2023-04-15T13:48:12;11.50;67.10
1680;DHT22;838;51.794;12.258;2023-04-15T13:50:38;11.50;69.70
1680;DHT22;838;51.794;12.258;2023-04-15T13:53:03;11.50;69.70
1680;DHT22;838;51.794;12.258;2023-04-15T13:55:29;11.60;67.40
1680;DHT22;838;51.794;12.258;2023-04-15T13:57:55;11.80;69.90
1680;DHT22;838;51.794;12.258;2023-04-15T14:00:21;12.00;67.10
1680;DHT22;838;51.794;12.258;2023-04-15T14:02:47;11.80;61.70
1680;DHT22;838;51.794;12.258;2023-04-15T14:05:13;11.70;66.10
1680;DHT22;838;51.794;12.258;2023-04-15T14:07:38;11.70;66.80
1680;DHT22;838;51.794;12.258;2023-04-15T14:10:04;11.70;67.70
1680;DHT22;838;51.794;12.258;2023-04-15T14:12:32;11.80;66.50
1680;DHT22;838;51.794;12.258;2023-04-15T14:14:58;11.80;65.50
1680;DHT22;838;51.794;12.258;2023-04-15T14:17:23;11.80;64.90
1680;DHT22;838;51.794;12.258;2023-04-15T14:19:50;11.70;67.80
1680;DHT22;838;51.794;12.258;2023-04-15T14:22:16;11.60;64.90
1680;DHT22;838;51.794;12.258;2023-04-15T14:24:43;11.60;68.50
1680;DHT22;838;51.794;12.258;2023-04-15T14:27:09;11.70;68.50
1680;DHT22;838;51.794;12.258;2023-04-15T14:29:36;11.70;67.70
1680;DHT22;838;51.794;12.258;2023-04-15T14:32:03;11.70;67.20
1680;DHT22;838;51.794;12.258;2023-04-15T14:34:28;11.70;70.10
1680;DHT22;838;51.794;12.258;2023-04-15T14:36:55;11.80;65.80
1680;DHT22;838;51.794;12.258;2023-04-15T14:39:20;11.90;65.50
1680;DHT22;838;51.794;12.258;2023-04-15T14:44:12;11.80;64.90
1680;DHT22;838;51.794;12.258;2023-04-15T14:46:38;11.80;67.30
1680;DHT22;838;51.794;12.258;2023-04-15T14:49:05;11.90;64.70
1680;DHT22;838;51.794;12.258;2023-04-15T14:51:31;11.70;63.60
1680;DHT22;838;51.794;12.258;2023-04-15T14:53:57;11.70;63.50
1680;DHT22;838;51.794;12.258;2023-04-15T14:56:23;11.70;64.30
1680;DHT22;838;51.794;12.258;2023-04-15T14:58:48;11.70;64.70
1680;DHT22;838;51.794;12.258;2023-04-15T15:01:17;11.60;66.40
1680;DHT22;838;51.794;12.258;2023-04-15T15:03:43;11.80;68.40
1680;DHT22;838;51.794;12.258;2023-04-15T15:06:08;11.70;64.00
1680;DHT22;838;51.794;12.258;2023-04-15T15:08:34;11.70;65.40
1680;DHT22;838;51.794;12.258;2023-04-15T15:11:01;11.70;66.80
1680;DHT22;838;51.794;12.258;2023-04-15T15:13:27;11.70;67.40
1680;DHT22;838;51.794;12.258;2023-04-15T15:15:52;11.60;66.20
1680;DHT22;838;51.794;12.258;2023-04-15T15:18:18;11.70;65.10
1680;DHT22;838;51.794;12.258;2023-04-15T15:20:44;11.70;66.30
1680;DHT22;838;51.794;12.258;2023-04-15T15:23:10;11.60;66.70
1680;DHT22;838;51.794;12.258;2023-04-15T15:25:35;11.60;66.50
1680;DHT22;838;51.794;12.258;2023-04-15T15:28:01;11.50;66.40
1680;DHT22;838;51.794;12.258;2023-04-15T15:30:27;11.50;67.50
1680;DHT22;838;51.794;12.258;2023-04-15T15:32:53;11.60;67.30
1680;DHT22;838;51.794;12.258;2023-04-15T15:35:18;11.60;66.40
1680;DHT22;838;51.794;12.258;2023-04-15T15:37:44;11.60;69.10
1680;DHT22;838;51.794;12.258;2023-04-15T15:40:10;11.80;69.70
1680;DHT22;838;51.794;12.258;2023-04-15T15:42:36;11.90;67.00
1680;DHT22;838;51.794;12.258;2023-04-15T15:45:03;12.20;65.50
1680;DHT22;838;51.794;12.258;2023-04-15T15:47:29;12.10;59.10
1680;DHT22;838;51.794;12.258;2023-04-15T15:49:55;11.80;60.00
1680;DHT22;838;51.794;12.258;2023-04-15T15:52:21;11.80;62.90
1680;DHT22;838;51.794;12.258;2023-04-15T15:54:47;11.80;63.40
1680;DHT22;838;51.794;12.258;2023-04-15T15:57:12;11.70;63.00
1680;DHT22;838;51.794;12.258;2023-04-15T15:59:38;11.70;63.90
1680;DHT22;838;51.794;12.258;2023-04-15T16:02:10;11.70;66.00
1680;DHT22;838;51.794;12.258;2023-04-15T16:04:37;11.70;65.70
1680;DHT22;838;51.794;12.258;2023-04-15T16:07:02;11.80;65.10
1680;DHT22;838;51.794;12.258;2023-04-15T16:09:29;11.70;66.80
1680;DHT22;838;51.794;12.258;2023-04-15T16:11:56;11.70;64.30
1680;DHT22;838;51.794;12.258;2023-04-15T16:14:22;11.70;65.20
1680;DHT22;838;51.794;12.258;2023-04-15T16:16:49;11.60;64.20
1680;DHT22;838;51.794;12.258;2023-04-15T16:19:15;11.60;67.00
1680;DHT22;838;51.794;12.258;2023-04-15T16:21:42;11.60;66.90
1680;DHT22;838;51.794;12.258;2023-04-15T16:24:08;11.70;66.10
1680;DHT22;838;51.794;12.258;2023-04-15T16:26:33;11.70;68.00
1680;DHT22;838;51.794;12.258;2023-04-15T16:28:59;11.60;66.40
1680;DHT22;838;51.794;12.258;2023-04-15T16:31:26;11.50;68.30